createdAt,value
2018-03-17T00:01:50.870Z,2.20
2018-03-17T00:04:18.321Z,2.20
2018-03-17T00:06:45.762Z,2.20
2018-03-17T00:09:13.198Z,2.10
2018-03-17T00:11:41.418Z,1.90
2018-03-17T00:14:08.866Z,1.90
2018-03-17T00:16:36.308Z,1.90
2018-03-17T00:19:03.748Z,1.90
2018-03-17T00:21:31.953Z,1.90
2018-03-17T00:23:59.391Z,1.90
2018-03-17T00:26:26.852Z,1.90
2018-03-17T00:28:54.285Z,1.90
2018-03-17T00:31:22.488Z,2.00
2018-03-17T00:33:49.965Z,2.00
2018-03-17T00:36:17.409Z,2.00
2018-03-17T00:38:44.853Z,2.00
2018-03-17T00:41:12.295Z,1.90
2018-03-17T00:43:40.497Z,1.80
2018-03-17T00:46:11.742Z,1.80
2018-03-17T00:48:39.186Z,1.70
2018-03-17T00:51:06.626Z,1.70
2018-03-17T00:53:34.844Z,1.70
2018-03-17T00:56:02.298Z,1.70
2018-03-17T00:58:29.740Z,1.80
2018-03-17T01:00:57.178Z,1.80
2018-03-17T01:03:25.384Z,1.70
2018-03-17T01:05:52.824Z,1.60
2018-03-17T01:08:20.281Z,1.70
2018-03-17T01:10:47.723Z,1.70
2018-03-17T01:13:15.935Z,1.90
2018-03-17T01:15:43.381Z,1.80
2018-03-17T01:18:10.828Z,1.80
2018-03-17T01:20:38.262Z,1.80
2018-03-17T01:23:06.480Z,1.70
2018-03-17T01:25:33.916Z,1.60
2018-03-17T01:28:01.372Z,1.70
2018-03-17T01:30:28.814Z,1.60
2018-03-17T01:32:57.033Z,1.50
2018-03-17T01:35:24.475Z,1.50
2018-03-17T01:37:51.908Z,1.50
2018-03-17T01:40:19.350Z,1.60
2018-03-17T01:42:47.555Z,1.60
2018-03-17T01:45:14.985Z,1.60
2018-03-17T01:47:43.200Z,1.50
2018-03-17T01:50:10.640Z,1.50
2018-03-17T01:52:38.076Z,1.50
2018-03-17T01:55:06.293Z,1.50
2018-03-17T01:57:33.739Z,1.50
2018-03-17T02:00:01.176Z,1.50
2018-03-17T02:02:29.384Z,1.50
2018-03-17T02:04:56.824Z,1.50
2018-03-17T02:07:24.267Z,1.50
2018-03-17T02:09:51.695Z,1.60
2018-03-17T02:12:19.141Z,1.60
2018-03-17T02:14:46.567Z,1.70
2018-03-17T02:17:14.021Z,1.60
2018-03-17T02:19:41.537Z,1.70
2018-03-17T02:22:09.774Z,1.60
2018-03-17T02:24:37.263Z,1.60
2018-03-17T02:27:05.476Z,1.50
2018-03-17T02:29:32.932Z,1.50
2018-03-17T02:32:00.404Z,1.50
2018-03-17T02:34:27.842Z,1.40
2018-03-17T02:36:55.275Z,1.40
2018-03-17T02:39:23.497Z,1.50
2018-03-17T02:41:50.930Z,1.50
2018-03-17T02:44:18.372Z,1.50
2018-03-17T02:46:46.583Z,1.50
2018-03-17T02:49:14.101Z,1.40
2018-03-17T02:51:42.371Z,1.50
2018-03-17T02:54:10.597Z,1.40
2018-03-17T02:56:38.195Z,1.40
2018-03-17T02:59:05.654Z,1.50
2018-03-17T03:01:33.092Z,1.50
2018-03-17T03:04:00.540Z,1.50
2018-03-17T03:06:27.982Z,1.60
2018-03-17T03:08:55.437Z,1.50
2018-03-17T03:11:22.882Z,1.50
2018-03-17T03:13:50.320Z,1.40
2018-03-17T03:16:18.544Z,1.30
2018-03-17T03:18:45.986Z,1.30
2018-03-17T03:21:13.418Z,1.20
2018-03-17T03:23:40.866Z,1.20
2018-03-17T03:26:09.076Z,1.30
2018-03-17T03:28:36.515Z,1.30
2018-03-17T03:31:03.950Z,1.30
2018-03-17T03:33:32.164Z,1.30
2018-03-17T03:35:59.600Z,1.20
2018-03-17T03:38:27.056Z,1.20
2018-03-17T03:40:54.592Z,1.20
2018-03-17T03:43:22.812Z,1.00
2018-03-17T03:45:50.248Z,1.00
2018-03-17T03:48:17.700Z,1.10
2018-03-17T03:50:45.138Z,1.10
2018-03-17T03:53:13.362Z,1.10
2018-03-17T03:55:40.814Z,1.10
2018-03-17T03:58:08.260Z,1.10
2018-03-17T04:00:35.696Z,1.00
2018-03-17T04:03:03.929Z,1.00
2018-03-17T04:05:31.377Z,1.00
2018-03-17T04:07:59.576Z,1.00
2018-03-17T04:10:27.008Z,1.00
2018-03-17T04:12:54.458Z,1.10
2018-03-17T04:15:21.911Z,1.10
2018-03-17T04:17:49.348Z,1.10
2018-03-17T04:20:16.884Z,1.00
2018-03-17T04:22:45.085Z,0.90
2018-03-17T04:25:12.540Z,0.90
2018-03-17T04:27:39.976Z,1.00
2018-03-17T04:30:08.196Z,0.90
2018-03-17T04:32:35.650Z,0.90
2018-03-17T04:35:03.099Z,1.00
2018-03-17T04:37:30.544Z,1.00
2018-03-17T04:39:57.993Z,1.00
2018-03-17T04:42:25.450Z,0.90
2018-03-17T04:44:53.653Z,1.00
2018-03-17T04:47:21.123Z,0.90
2018-03-17T04:49:48.534Z,0.90
2018-03-17T04:52:16.066Z,0.80
2018-03-17T04:54:43.530Z,0.80
2018-03-17T04:57:11.732Z,0.70
2018-03-17T04:59:39.214Z,0.70
2018-03-17T05:02:06.669Z,0.70
2018-03-17T05:04:34.120Z,0.70
2018-03-17T05:07:01.686Z,0.70
2018-03-17T05:09:29.114Z,0.60
2018-03-17T05:11:56.581Z,0.60
2018-03-17T05:14:24.025Z,0.60
2018-03-17T05:16:52.237Z,0.60
2018-03-17T05:19:19.673Z,0.60
2018-03-17T05:21:47.122Z,0.60
2018-03-17T05:24:14.572Z,0.50
2018-03-17T05:26:42.840Z,0.50
2018-03-17T05:29:11.052Z,0.60
2018-03-17T05:31:38.562Z,0.60
2018-03-17T05:34:06.015Z,0.60
2018-03-17T05:36:33.464Z,0.70
2018-03-17T05:39:00.910Z,0.70
2018-03-17T05:41:28.368Z,0.70
2018-03-17T05:43:55.801Z,0.70
2018-03-17T05:46:23.272Z,0.80
2018-03-17T05:48:50.781Z,0.70
2018-03-17T05:51:19.013Z,0.70
2018-03-17T05:53:46.458Z,0.70
2018-03-17T05:56:13.929Z,0.50
2018-03-17T05:58:41.502Z,0.60
2018-03-17T06:01:08.906Z,0.60
2018-03-17T06:03:36.351Z,0.40
2018-03-17T06:06:03.793Z,0.40
2018-03-17T06:08:32.026Z,0.40
2018-03-17T06:13:43.788Z,0.50
2018-03-17T06:16:12.083Z,0.50
2018-03-17T06:18:39.520Z,0.50
2018-03-17T06:21:07.737Z,0.50
2018-03-17T06:23:35.284Z,0.50
2018-03-17T06:26:02.849Z,0.50
2018-03-17T06:28:30.291Z,0.60
2018-03-17T06:30:57.732Z,0.50
2018-03-17T06:33:26.006Z,0.40
2018-03-17T06:35:54.213Z,0.30
2018-03-17T06:38:21.826Z,0.30
2018-03-17T06:40:50.152Z,0.40
2018-03-17T06:43:17.584Z,0.40
2018-03-17T06:45:45.034Z,0.40
2018-03-17T06:48:13.248Z,0.40
2018-03-17T06:50:40.716Z,0.50
2018-03-17T06:53:08.148Z,0.40
2018-03-17T06:55:35.639Z,0.40
2018-03-17T06:58:03.069Z,0.40
2018-03-17T07:00:32.620Z,0.40
2018-03-17T07:03:00.012Z,0.40
2018-03-17T07:05:27.455Z,0.40
2018-03-17T07:07:56.023Z,0.50
2018-03-17T07:10:23.476Z,0.50
2018-03-17T07:12:50.937Z,0.30
2018-03-17T07:15:19.165Z,0.40
2018-03-17T07:17:46.769Z,0.40
2018-03-17T07:20:14.201Z,0.40
2018-03-17T07:22:41.703Z,0.50
2018-03-17T07:25:09.916Z,0.40
2018-03-17T07:27:37.373Z,0.40
2018-03-17T07:30:04.827Z,0.40
2018-03-17T07:32:32.279Z,0.30
2018-03-17T07:34:59.735Z,0.20
2018-03-17T07:37:27.217Z,0.30
2018-03-17T07:39:54.733Z,0.40
2018-03-17T07:42:23.456Z,0.30
2018-03-17T07:44:50.996Z,0.30
2018-03-17T07:47:18.440Z,0.40
2018-03-17T07:49:45.901Z,0.50
2018-03-17T07:52:13.369Z,0.50
2018-03-17T07:54:40.833Z,0.50
2018-03-17T07:57:08.271Z,0.50
2018-03-17T07:59:35.721Z,0.60
2018-03-17T08:02:04.212Z,0.60
2018-03-17T08:04:31.710Z,0.60
2018-03-17T08:06:59.159Z,0.60
2018-03-17T08:09:26.608Z,0.60
2018-03-17T08:11:54.051Z,0.60
2018-03-17T08:14:21.536Z,0.60
2018-03-17T08:16:48.948Z,0.60
2018-03-17T08:19:16.406Z,0.50
2018-03-17T08:21:43.841Z,0.60
2018-03-17T08:24:12.080Z,0.50
2018-03-17T08:26:39.523Z,0.50
2018-03-17T08:29:07.038Z,0.50
2018-03-17T08:31:35.253Z,0.50
2018-03-17T08:34:02.710Z,0.40
2018-03-17T08:36:30.165Z,0.40
2018-03-17T08:38:57.629Z,0.50
2018-03-17T08:41:25.083Z,0.60
2018-03-17T08:43:52.550Z,0.60
2018-03-17T08:46:20.002Z,0.50
2018-03-17T08:48:47.454Z,0.60
2018-03-17T08:51:14.899Z,0.70
2018-03-17T08:53:45.822Z,0.70
2018-03-17T08:56:14.025Z,0.70
2018-03-17T08:58:41.479Z,0.70
2018-03-17T09:01:09.000Z,0.70
2018-03-17T09:03:37.224Z,0.80
2018-03-17T09:06:04.905Z,0.70
2018-03-17T09:08:32.349Z,0.90
2018-03-17T09:10:59.808Z,0.90
2018-03-17T09:13:27.250Z,0.90
2018-03-17T09:15:54.710Z,0.90
2018-03-17T09:18:23.161Z,0.80
2018-03-17T09:20:50.602Z,0.90
2018-03-17T09:23:18.819Z,0.90
2018-03-17T09:25:46.278Z,0.90
2018-03-17T09:28:13.740Z,0.90
2018-03-17T09:30:41.178Z,1.00
2018-03-17T09:33:08.755Z,0.90
2018-03-17T09:35:36.374Z,1.00
2018-03-17T09:38:04.722Z,1.00
2018-03-17T09:40:32.159Z,1.00
2018-03-17T09:42:59.608Z,1.10
2018-03-17T09:45:27.061Z,1.10
2018-03-17T09:47:55.417Z,1.00
2018-03-17T09:50:22.849Z,1.00
2018-03-17T09:52:51.073Z,1.00
2018-03-17T09:55:18.512Z,1.00
2018-03-17T09:57:47.819Z,1.00
2018-03-17T10:00:15.265Z,1.10
2018-03-17T10:02:42.716Z,1.00
2018-03-17T10:05:10.166Z,0.90
2018-03-17T10:07:38.392Z,0.80
2018-03-17T10:10:05.909Z,0.80
2018-03-17T10:12:33.347Z,0.80
2018-03-17T10:15:02.583Z,0.90
2018-03-17T10:17:30.016Z,0.90
2018-03-17T10:19:58.240Z,0.80
2018-03-17T10:22:25.700Z,0.80
2018-03-17T10:24:53.205Z,0.80
2018-03-17T10:27:20.627Z,0.80
2018-03-17T10:29:48.198Z,0.50
2018-03-17T10:32:15.635Z,0.60
2018-03-17T10:34:43.148Z,0.70
2018-03-17T10:37:11.356Z,0.60
2018-03-17T10:39:38.811Z,0.60
2018-03-17T10:42:06.325Z,0.60
2018-03-17T10:44:34.540Z,0.70
2018-03-17T10:47:01.993Z,0.70
2018-03-17T10:49:29.440Z,0.70
2018-03-17T10:51:56.880Z,0.70
2018-03-17T10:54:24.327Z,0.60
2018-03-17T10:56:52.543Z,0.80
2018-03-17T10:59:20.002Z,0.80
2018-03-17T11:01:47.566Z,1.00
2018-03-17T11:04:14.995Z,0.90
2018-03-17T11:06:42.448Z,0.80
2018-03-17T11:09:10.713Z,0.80
2018-03-17T11:11:38.985Z,0.60
2018-03-17T11:14:06.383Z,0.60
2018-03-17T11:16:33.842Z,0.60
2018-03-17T11:19:01.384Z,0.50
2018-03-17T11:21:28.834Z,0.50
2018-03-17T11:23:56.282Z,0.40
2018-03-17T11:26:24.488Z,0.70
2018-03-17T11:28:51.941Z,0.70
2018-03-17T11:31:19.373Z,0.70
2018-03-17T11:33:47.627Z,0.60
2018-03-17T11:36:15.016Z,0.60
2018-03-17T11:38:42.455Z,0.70
2018-03-17T11:41:10.675Z,0.70
2018-03-17T11:43:38.107Z,0.70
2018-03-17T11:46:05.562Z,0.80
2018-03-17T11:48:33.004Z,0.90
2018-03-17T11:51:01.278Z,0.70
2018-03-17T11:53:29.495Z,0.50
2018-03-17T11:55:56.935Z,0.50
2018-03-17T11:58:24.377Z,0.50
2018-03-17T12:00:51.919Z,0.60
2018-03-17T12:03:20.228Z,0.90
2018-03-17T12:05:47.671Z,0.90
2018-03-17T12:08:15.937Z,0.60
2018-03-17T12:10:45.384Z,0.60
2018-03-17T12:13:12.835Z,0.70
2018-03-17T12:15:40.285Z,0.60
2018-03-17T12:18:07.724Z,0.50
2018-03-17T12:20:35.174Z,0.50
2018-03-17T12:23:03.384Z,0.40
2018-03-17T12:25:30.918Z,0.40
2018-03-17T12:27:58.373Z,0.40
2018-03-17T12:30:25.854Z,0.50
2018-03-17T12:32:53.275Z,0.50
2018-03-17T12:35:21.489Z,0.70
2018-03-17T12:37:48.938Z,0.70
2018-03-17T12:40:16.400Z,0.50
2018-03-17T12:42:44.641Z,0.70
2018-03-17T12:45:12.082Z,0.70
2018-03-17T12:47:39.532Z,0.80
2018-03-17T12:50:06.987Z,0.60
2018-03-17T12:52:34.432Z,0.50
2018-03-17T12:55:01.898Z,0.50
2018-03-17T12:57:29.350Z,0.60
2018-03-17T12:59:56.815Z,0.60
2018-03-17T13:02:24.326Z,0.60
2018-03-17T13:04:51.759Z,0.60
2018-03-17T13:07:20.032Z,0.80
2018-03-17T13:09:48.229Z,0.90
2018-03-17T13:12:15.674Z,0.80
2018-03-17T13:14:43.147Z,0.80
2018-03-17T13:17:10.599Z,0.70
2018-03-17T13:19:38.045Z,0.80
2018-03-17T13:22:05.506Z,0.80
2018-03-17T13:24:32.950Z,0.40
2018-03-17T13:27:12.989Z,0.20
2018-03-17T13:29:40.448Z,0.20
2018-03-17T13:32:20.471Z,0.20
2018-03-17T13:34:47.942Z,0.20
2018-03-17T13:37:36.889Z,0.10
2018-03-17T13:43:02.913Z,0.10
2018-03-17T13:45:30.427Z,0.00
2018-03-17T13:48:00.652Z,0.00
2018-03-17T13:50:28.920Z,0.10
2018-03-17T13:52:56.349Z,0.10
2018-03-17T13:55:23.813Z,0.10
2018-03-17T13:57:51.296Z,0.10
2018-03-17T14:00:19.516Z,0.20
2018-03-17T14:02:46.975Z,0.10
2018-03-17T14:05:14.541Z,0.10
2018-03-17T14:07:42.081Z,0.10
2018-03-17T14:10:09.523Z,0.20
2018-03-17T14:12:37.837Z,0.10
2018-03-17T14:15:05.285Z,0.10
2018-03-17T14:17:32.761Z,0.20
2018-03-17T14:20:00.201Z,0.20
2018-03-17T14:22:27.659Z,0.10
2018-03-17T14:24:55.195Z,0.10
2018-03-17T14:27:22.640Z,0.00
2018-03-17T14:29:50.862Z,0.10
2018-03-17T14:32:19.068Z,0.00
2018-03-17T14:34:46.518Z,0.00
2018-03-17T14:37:13.974Z,-0.10
2018-03-17T14:39:41.466Z,0.00
2018-03-17T14:42:09.690Z,0.00
2018-03-17T14:44:37.143Z,0.00
2018-03-17T14:47:04.601Z,0.00
2018-03-17T14:49:32.091Z,0.10
2018-03-17T14:51:59.538Z,0.10
2018-03-17T14:54:26.986Z,0.00
2018-03-17T14:56:54.440Z,0.00
2018-03-17T14:59:21.904Z,-0.30
2018-03-17T15:01:49.351Z,-0.30
2018-03-17T15:04:16.810Z,-0.40
2018-03-17T15:06:44.263Z,-0.30
2018-03-17T15:09:11.763Z,-0.30
2018-03-17T15:11:39.210Z,-0.10
2018-03-17T15:14:06.659Z,-0.10
2018-03-17T15:16:34.141Z,0.00
2018-03-17T15:19:02.415Z,0.00
2018-03-17T15:21:29.870Z,0.00
2018-03-17T15:23:57.297Z,0.00
2018-03-17T15:26:24.759Z,0.00
2018-03-17T15:28:52.270Z,-0.10
2018-03-17T15:31:19.694Z,-0.10
2018-03-17T15:33:47.948Z,-0.30
2018-03-17T15:36:15.366Z,-0.30
2018-03-17T15:38:42.836Z,-0.40
2018-03-17T15:41:10.292Z,-0.30
2018-03-17T15:43:37.736Z,-0.40
2018-03-17T15:46:05.193Z,-0.30
2018-03-17T15:48:32.646Z,-0.20
2018-03-17T15:51:00.093Z,-0.20
2018-03-17T15:53:27.545Z,-0.20
2018-03-17T15:55:55.015Z,-0.10
2018-03-17T15:58:22.463Z,0.00
2018-03-17T16:00:50.692Z,-0.10
2018-03-17T16:03:18.137Z,-0.10
2018-03-17T16:05:45.589Z,-0.30
2018-03-17T16:08:13.034Z,-0.40
2018-03-17T16:10:40.485Z,-0.40
2018-03-17T16:13:07.929Z,-0.40
2018-03-17T16:15:35.386Z,-0.40
2018-03-17T16:18:02.834Z,-0.40
2018-03-17T16:20:31.050Z,-0.50
2018-03-17T16:22:58.555Z,-0.50
2018-03-17T16:25:25.988Z,-0.50
2018-03-17T16:27:53.505Z,-0.50
2018-03-17T16:30:20.955Z,-0.50
2018-03-17T16:32:48.393Z,-0.40
2018-03-17T16:35:16.615Z,-0.50
2018-03-17T16:37:44.847Z,-0.50
2018-03-17T16:40:13.066Z,-0.50
2018-03-17T16:42:41.297Z,-0.60
2018-03-17T16:45:09.515Z,-0.70
2018-03-17T16:47:36.968Z,-0.70
2018-03-17T16:50:04.428Z,-0.70
2018-03-17T16:52:31.876Z,-0.70
2018-03-17T16:54:59.318Z,-0.60
2018-03-17T16:57:26.783Z,-0.60
2018-03-17T16:59:54.222Z,-0.60
2018-03-17T17:02:21.673Z,-0.60
2018-03-17T17:04:49.889Z,-0.50
2018-03-17T17:07:17.419Z,-0.60
2018-03-17T17:09:44.862Z,-0.70
2018-03-17T17:12:13.102Z,-0.70
2018-03-17T17:14:40.533Z,-0.70
2018-03-17T17:17:07.994Z,-0.90
2018-03-17T17:19:35.447Z,-0.80
2018-03-17T17:22:02.922Z,-0.70
2018-03-17T17:24:30.362Z,-0.70
2018-03-17T17:26:57.814Z,-0.80
2018-03-17T17:29:25.257Z,-0.70
2018-03-17T17:31:52.702Z,-0.70
2018-03-17T17:34:20.157Z,-0.70
2018-03-17T17:36:47.624Z,-0.80
2018-03-17T17:39:15.074Z,-0.80
2018-03-17T17:41:42.563Z,-0.90
2018-03-17T17:44:09.985Z,-0.90
2018-03-17T17:46:37.499Z,-0.90
2018-03-17T17:49:04.962Z,-1.00
2018-03-17T17:51:32.426Z,-1.10
2018-03-17T17:53:59.874Z,-1.00
2018-03-17T17:56:27.335Z,-1.00
2018-03-17T17:58:54.776Z,-1.10
2018-03-17T18:01:22.240Z,-1.10
2018-03-17T18:03:50.667Z,-1.00
2018-03-17T18:06:18.889Z,-1.10
2018-03-17T18:08:46.338Z,-1.10
2018-03-17T18:11:14.795Z,-1.00
2018-03-17T18:13:42.238Z,-1.00
2018-03-17T18:16:10.451Z,-0.90
2018-03-17T18:18:37.922Z,-0.90
2018-03-17T18:21:05.360Z,-0.90
2018-03-17T18:23:33.833Z,-0.80
2018-03-17T18:26:01.278Z,-0.80
2018-03-17T18:28:28.786Z,-0.90
2018-03-17T18:30:56.225Z,-0.90
2018-03-17T18:33:23.694Z,-0.90
2018-03-17T18:35:51.126Z,-0.80
2018-03-17T18:38:18.587Z,-0.80
2018-03-17T18:40:46.036Z,-0.90
2018-03-17T18:43:13.474Z,-1.10
2018-03-17T18:45:40.925Z,-1.20
2018-03-17T18:48:09.142Z,-1.00
2018-03-17T18:50:36.593Z,-1.00
2018-03-17T18:53:04.055Z,-1.00
2018-03-17T18:55:31.561Z,-1.00
2018-03-17T18:57:59.103Z,-1.00
2018-03-17T19:00:26.556Z,-1.00
2018-03-17T19:02:56.008Z,-1.00
2018-03-17T19:05:23.467Z,-1.10
2018-03-17T19:07:50.936Z,-1.00
2018-03-17T19:10:18.390Z,-1.00
2018-03-17T19:12:45.836Z,-0.90
2018-03-17T19:15:13.266Z,-1.00
2018-03-17T19:17:41.507Z,-1.00
2018-03-17T19:20:08.947Z,-1.00
2018-03-17T19:22:36.419Z,-1.10
2018-03-17T19:25:04.857Z,-1.10
2018-03-17T19:27:32.323Z,-1.10
2018-03-17T19:29:59.771Z,-1.10
2018-03-17T19:32:27.229Z,-1.10
2018-03-17T19:34:54.667Z,-1.20
2018-03-17T19:37:22.985Z,-1.20
2018-03-17T19:39:52.473Z,-1.20
2018-03-17T19:42:20.038Z,-1.30
2018-03-17T19:44:47.489Z,-1.30
2018-03-17T19:47:14.942Z,-1.30
2018-03-17T19:49:42.386Z,-1.30
2018-03-17T19:52:10.626Z,-1.30
2018-03-17T19:54:38.113Z,-1.30
2018-03-17T19:57:06.365Z,-1.30
2018-03-17T19:59:33.874Z,-1.30
2018-03-17T20:02:01.343Z,-1.20
2018-03-17T20:04:28.778Z,-1.30
2018-03-17T20:06:56.984Z,-1.30
2018-03-17T20:09:24.457Z,-1.30
2018-03-17T20:11:51.983Z,-1.20
2018-03-17T20:14:19.501Z,-1.20
2018-03-17T20:16:47.021Z,-1.20
2018-03-17T20:19:14.480Z,-1.20
2018-03-17T20:21:41.905Z,-1.30
2018-03-17T20:24:09.530Z,-1.20
2018-03-17T20:26:36.976Z,-1.20
2018-03-17T20:29:04.477Z,-1.20
2018-03-17T20:31:31.936Z,-1.30
2018-03-17T20:34:00.157Z,-1.40
2018-03-17T20:36:27.656Z,-1.40
2018-03-17T20:38:55.125Z,-1.40
2018-03-17T20:41:22.688Z,-1.30
2018-03-17T20:43:50.974Z,-1.30
2018-03-17T20:46:18.421Z,-1.30
2018-03-17T20:48:45.864Z,-1.30
2018-03-17T20:51:14.202Z,-1.30
2018-03-17T20:56:34.352Z,-1.30
2018-03-17T20:59:02.553Z,-1.20
2018-03-17T21:01:31.119Z,-1.30
2018-03-17T21:03:58.569Z,-1.20
2018-03-17T21:06:26.791Z,-1.20
2018-03-17T21:08:54.248Z,-1.20
2018-03-17T21:11:21.701Z,-1.20
2018-03-17T21:13:49.156Z,-1.30
2018-03-17T21:16:16.631Z,-1.40
2018-03-17T21:18:44.101Z,-1.50
2018-03-17T21:21:11.553Z,-1.40
2018-03-17T21:23:39.014Z,-1.30
2018-03-17T21:26:06.478Z,-1.30
2018-03-17T21:28:33.924Z,-1.20
2018-03-17T21:31:01.409Z,-1.20
2018-03-17T21:33:29.629Z,-1.10
2018-03-17T21:35:57.110Z,-1.10
2018-03-17T21:38:24.564Z,-1.10
2018-03-17T21:40:52.057Z,-1.00
2018-03-17T21:43:19.469Z,-1.00
2018-03-17T21:45:46.932Z,-1.10
2018-03-17T21:48:14.399Z,-1.10
2018-03-17T21:50:41.858Z,-1.00
2018-03-17T21:53:09.312Z,-1.20
2018-03-17T21:55:36.779Z,-1.20
2018-03-17T21:58:04.242Z,-1.30
2018-03-17T22:00:31.678Z,-1.30
2018-03-17T22:02:59.165Z,-1.30
2018-03-17T22:05:26.630Z,-1.20
2018-03-17T22:07:54.081Z,-1.30
2018-03-17T22:10:21.548Z,-1.30
2018-03-17T22:12:48.997Z,-1.30
2018-03-17T22:15:16.474Z,-1.20
2018-03-17T22:17:44.702Z,-1.30
2018-03-17T22:20:12.163Z,-1.20
2018-03-17T22:22:39.615Z,-1.20
2018-03-17T22:25:07.136Z,-1.30
2018-03-17T22:27:34.595Z,-1.20
2018-03-17T22:30:02.055Z,-1.20
2018-03-17T22:32:29.507Z,-1.30
2018-03-17T22:34:56.961Z,-1.30
2018-03-17T22:37:24.420Z,-1.20
2018-03-17T22:39:51.872Z,-1.40
2018-03-17T22:42:20.094Z,-1.40
2018-03-17T22:44:47.541Z,-1.30
2018-03-17T22:47:15.002Z,-1.30
2018-03-17T22:49:42.515Z,-1.30
2018-03-17T22:52:09.986Z,-1.20
2018-03-17T22:54:37.445Z,-1.20
2018-03-17T22:57:04.906Z,-1.20
2018-03-17T22:59:32.371Z,-1.10
2018-03-17T23:01:59.827Z,-1.10
2018-03-17T23:04:27.309Z,-1.10
2018-03-17T23:06:54.777Z,-1.10
2018-03-17T23:09:22.231Z,-1.20
2018-03-17T23:11:50.786Z,-1.10
2018-03-17T23:14:18.234Z,-1.20
2018-03-17T23:16:48.961Z,-1.20
2018-03-17T23:19:17.173Z,-1.40
2018-03-17T23:21:44.647Z,-1.40
2018-03-17T23:24:12.165Z,-1.30
2018-03-17T23:26:39.615Z,-1.30
2018-03-17T23:29:07.087Z,-1.40
2018-03-17T23:31:34.537Z,-1.40
2018-03-17T23:34:01.998Z,-1.50
2018-03-17T23:36:29.470Z,-1.60
2018-03-17T23:38:56.930Z,-1.70
2018-03-17T23:41:24.451Z,-1.60
2018-03-17T23:43:51.910Z,-1.90
2018-03-17T23:46:19.368Z,-2.00
2018-03-17T23:48:46.858Z,-1.90
2018-03-17T23:51:14.308Z,-2.00
2018-03-17T23:53:43.806Z,-2.00
2018-03-17T23:56:11.251Z,-2.00
2018-03-17T23:58:38.719Z,-2.00
